Impacts TAF Board INFO
FOR SITUATIONAL AWARENESS. NOT TO BE USED FOR FLIGHT PLANNING PURPOSES.
IDs:

KEYW - Key West Intl, FL, US

Issued at 2324 UTC 16 Oct 2017
Updated at 0155 UTC 17 Oct 2017
Potential Impact None Slight Moderate High
Time0153Z 17/02Z 17/03Z 17/04Z 17/05Z 17/06Z 17/07Z 17/08Z 17/09Z 17/10Z 17/11Z 17/12Z 17/13Z 17/14Z>>
Type OBS PRVL PRVL PRVL PRVL PRVL PRVL PRVL PRVL PRVL PRVL PRVL PRVL PRVL
VIS 10 >6 >6 >6 >6 >6 >6 >6 >6 >6 >6 >6 >6 >6
CIG -- -- -- -- -- -- -- -- -- -- -- -- -- --
Cover CLR SCT SCT SCT SCT SCT SCT SCT SCT SCT SCT SCT SCT SCT
FltCat VFR VFR VFR VFR VFR VFR VFR VFR VFR VFR VFR VFR VFR VFR
WX -- -- -- -- -- -- -- -- -- -- -- -- -- --
WDir 20 40 40 40 40 40 40 40 40 40 40 40 40 40
WSpd 3 5 5 5 5 5 5 5 5 5 5 5 5 5
WGst -- -- -- -- -- -- -- -- -- -- -- -- -- --

Raw TAF
KEYW 162324Z 1700/1724 04005KT P6SM SCT025

Raw METAR
KEYW 170153Z AUTO 02003KT 10SM CLR 28/23 A2996 RMK AO2 SLP145 T02780233
KEYW 170053Z AUTO 00000KT 10SM CLR 28/23 A2994 RMK AO2 SLP139 T02780233
KEYW 162353Z AUTO 02003KT 10SM CLR 28/23 A2993 RMK AO2 SLP133 T02830228 10311 20283 53007
KEYW 162253Z AUTO 04004KT 10SM CLR 29/23 A2991 RMK AO2 SLP128 T02890233

METAR Board
Radar Display
Forecast Discussion

FOR SITUATIONAL AWARENESS. NOT TO BE USED FOR FLIGHT PLANNING PURPOSES.